Time;durP1;ratioP1;P1;durP2;ratioP2;P2;SDS_P1;SDS_P2;PMS_P1;PMS_P2;Temp;Humidity;BMP_temperature;BMP_pressure;BME280_temperature;BME280_humidity;BME280_pressure;Samples;Min_cycle;Max_cycle;Signal;HPM_P1;HPM_P2
2022/12/23 00:02:15;;;;;;;0.00;0.00;;;7.70;93.60;;;;;;5026979;28;20041;-68
2022/12/23 00:04:41;;;;;;;0.20;0.20;;;7.70;93.60;;;;;;5028471;28;20576;-68
2022/12/23 00:07:06;;;;;;;0.00;0.00;;;7.80;93.60;;;;;;5029600;28;20128;-68
2022/12/23 00:09:32;;;;;;;0.00;0.00;;;7.70;93.60;;;;;;5030211;28;20120;-68
2022/12/23 00:17:26;;;;;;;0.00;0.00;;;7.80;93.60;;;;;;5029985;28;20406;-68
2022/12/23 00:19:52;;;;;;;0.00;0.00;;;7.70;93.60;;;;;;5029789;28;20052;-68
2022/12/23 00:22:18;;;;;;;0.00;0.00;;;7.80;93.60;;;;;;5011175;28;20115;-68
2022/12/23 00:24:43;;;;;;;0.00;0.00;;;7.80;93.60;;;;;;5011007;28;20044;-68
2022/12/23 00:27:09;;;;;;;0.00;0.00;;;7.80;93.60;;;;;;5030056;28;20045;-68
2022/12/23 00:29:34;;;;;;;0.40;0.30;;;7.80;93.60;;;;;;5029399;28;20045;-68
2022/12/23 00:32:00;;;;;;;0.00;0.00;;;7.80;93.60;;;;;;5009480;28;20168;-68
2022/12/23 00:34:25;;;;;;;0.00;0.00;;;7.80;93.60;;;;;;5028071;28;20041;-68
2022/12/23 00:36:51;;;;;;;0.00;0.00;;;7.80;93.50;;;;;;5025400;28;20049;-68
2022/12/23 00:44:45;;;;;;;0.00;0.00;;;7.70;93.60;;;;;;5006446;28;20508;-68
2022/12/23 00:49:40;;;;;;;0.00;0.00;;;7.60;93.60;;;;;;5029555;28;20041;-68
2022/12/23 00:49:56;;;;;;;0.00;0.00;;;7.60;93.60;;;;;;5028707;28;20041;-68
2022/12/23 00:52:21;;;;;;;0.10;0.10;;;7.60;93.60;;;;;;5010160;28;20413;-68
2022/12/23 00:54:47;;;;;;;0.00;0.00;;;7.60;93.60;;;;;;5027661;28;20038;-68
2022/12/23 00:57:13;;;;;;;0.00;0.00;;;7.60;93.70;;;;;;5027376;28;20467;-68
2022/12/23 00:59:38;;;;;;;0.00;0.00;;;7.60;93.70;;;;;;5026600;28;20037;-68
2022/12/23 01:07:32;;;;;;;0.00;0.00;;;7.60;93.70;;;;;;5028036;28;20132;-68
2022/12/23 01:09:58;;;;;;;1.90;1.38;;;7.60;93.70;;;;;;5028861;28;20459;-68
2022/12/23 01:12:23;;;;;;;0.00;0.00;;;7.60;93.70;;;;;;5029058;28;20808;-68
2022/12/23 01:14:49;;;;;;;0.00;0.00;;;7.60;93.80;;;;;;5028584;28;20502;-68
2022/12/23 01:17:15;;;;;;;0.00;0.00;;;7.60;93.70;;;;;;5010611;28;20478;-68
2022/12/23 01:19:40;;;;;;;0.00;0.00;;;7.50;93.80;;;;;;5029442;28;20049;-68
2022/12/23 01:22:06;;;;;;;0.00;0.00;;;7.50;93.80;;;;;;5019458;28;20093;-68
2022/12/23 01:24:32;;;;;;;0.47;0.47;;;7.60;93.90;;;;;;5011921;28;20345;-68
2022/12/23 01:26:58;;;;;;;0.00;0.00;;;7.60;93.90;;;;;;5011287;28;20042;-68
2022/12/23 01:29:24;;;;;;;0.00;0.00;;;7.60;93.90;;;;;;5027891;28;20051;-68
2022/12/23 01:31:50;;;;;;;4.65;0.63;;;7.60;93.80;;;;;;5027665;28;20493;-68
2022/12/23 01:34:15;;;;;;;0.00;0.00;;;7.60;93.80;;;;;;5034163;28;20056;-68
2022/12/23 01:36:41;;;;;;;0.00;0.00;;;7.60;93.80;;;;;;5009068;28;20056;-68
2022/12/23 01:39:07;;;;;;;0.00;0.00;;;7.70;93.80;;;;;;5026239;28;20081;-68
2022/12/23 01:44:48;;;;;;;0.17;0.17;;;7.60;93.90;;;;;;5022341;28;20060;-68
2022/12/23 01:47:20;;;;;;;0.08;0.08;;;7.60;93.90;;;;;;5007390;28;20502;-68
2022/12/23 01:49:48;;;;;;;0.00;0.00;;;7.60;93.90;;;;;;4983795;28;20113;-68
2022/12/23 01:52:13;;;;;;;0.15;0.15;;;7.60;94.00;;;;;;5027854;28;20057;-68
2022/12/23 01:54:40;;;;;;;0.82;0.35;;;7.60;93.90;;;;;;5022818;28;20044;-68
2022/12/23 01:57:06;;;;;;;0.25;0.25;;;7.60;93.90;;;;;;5026634;28;20049;-68
2022/12/23 02:05:01;;;;;;;0.10;0.10;;;7.60;94.10;;;;;;5025040;28;20066;-68
2022/12/23 02:10:11;;;;;;;0.45;0.45;;;7.60;94.10;;;;;;5029364;28;20049;-68
2022/12/23 02:12:59;;;;;;;0.00;0.00;;;7.50;94.10;;;;;;5032003;28;20427;-68
2022/12/23 02:18:44;;;;;;;0.10;0.10;;;7.50;94.20;;;;;;5027643;28;20050;-68
2022/12/23 02:21:37;;;;;;;0.00;0.00;;;7.50;94.20;;;;;;5029120;28;20046;-68
2022/12/23 02:24:30;;;;;;;0.00;0.00;;;7.60;94.10;;;;;;5030290;28;20096;-68
2022/12/23 02:27:06;;;;;;;0.03;0.03;;;7.50;94.20;;;;;;5027438;28;20501;-68
2022/12/23 02:29:50;;;;;;;0.17;0.17;;;7.60;94.20;;;;;;5029746;28;20457;-68
2022/12/23 02:32:39;;;;;;;0.00;0.00;;;7.60;94.20;;;;;;5029945;28;20178;-68
2022/12/23 02:35:33;;;;;;;0.00;0.00;;;7.60;94.20;;;;;;5027219;28;20049;-68
2022/12/23 02:37:58;;;;;;;0.20;0.20;;;7.60;94.20;;;;;;5028637;28;20057;-68
2022/12/23 02:40:37;;;;;;;0.03;0.03;;;7.60;94.20;;;;;;5031002;28;20136;-68
2022/12/23 02:43:41;;;;;;;0.00;0.00;;;7.60;94.20;;;;;;5029316;28;20041;-68
2022/12/23 02:46:21;;;;;;;0.00;0.00;;;7.70;94.20;;;;;;5029828;28;20084;-68
2022/12/23 02:48:56;;;;;;;0.00;0.00;;;7.60;94.20;;;;;;5029440;28;20049;-68
2022/12/23 02:51:28;;;;;;;0.08;0.08;;;7.60;94.10;;;;;;5029111;28;20068;-68
2022/12/23 02:53:55;;;;;;;;;;;7.60;94.10;;;;;;5031365;28;20080;-68
2022/12/23 02:56:23;;;;;;;0.00;0.00;;;7.60;94.10;;;;;;5029043;28;20481;-68
2022/12/23 02:59:11;;;;;;;0.10;0.10;;;7.60;94.10;;;;;;5025177;28;20112;-68
2022/12/23 03:01:38;;;;;;;0.00;0.00;;;7.60;94.00;;;;;;5026721;28;20501;-69
2022/12/23 03:04:04;;;;;;;0.00;0.00;;;7.50;94.10;;;;;;5029934;28;20052;-68
2022/12/23 03:06:41;;;;;;;0.00;0.00;;;7.60;94.10;;;;;;5039465;28;20033;-68
2022/12/23 03:09:07;;;;;;;3.40;0.80;;;7.60;94.10;;;;;;5030593;28;20510;-68
2022/12/23 03:11:51;;;;;;;0.00;0.00;;;7.60;94.10;;;;;;5031258;28;20387;-68
2022/12/23 03:14:41;;;;;;;0.00;0.00;;;7.60;94.10;;;;;;5030229;28;20041;-69
2022/12/23 03:17:38;;;;;;;0.25;0.25;;;7.50;94.10;;;;;;5018019;28;20071;-68
2022/12/23 03:20:10;;;;;;;0.10;0.10;;;7.40;94.00;;;;;;5040516;28;20033;-68
2022/12/23 03:22:51;;;;;;;0.00;0.00;;;7.40;94.10;;;;;;5034373;28;20408;-68
2022/12/23 03:25:32;;;;;;;0.00;0.00;;;7.40;94.10;;;;;;5042504;28;20700;-68
2022/12/23 03:28:05;;;;;;;0.08;0.08;;;7.40;94.10;;;;;;5030851;28;20052;-68
2022/12/23 03:30:33;;;;;;;0.00;0.00;;;7.30;94.00;;;;;;5030544;28;20076;-69
2022/12/23 03:33:08;;;;;;;0.57;0.57;;;7.30;94.10;;;;;;5030568;28;20712;-68
2022/12/23 03:35:40;;;;;;;0.50;0.50;;;7.20;94.20;;;;;;5030493;28;20409;-68
2022/12/23 03:38:09;;;;;;;0.00;0.00;;;7.30;94.30;;;;;;5027116;28;20058;-68
2022/12/23 03:40:53;;;;;;;0.00;0.00;;;7.30;94.20;;;;;;5029113;28;20053;-68
2022/12/23 03:43:44;;;;;;;1.00;0.75;;;7.20;94.30;;;;;;5028434;28;20501;-68
2022/12/23 03:46:16;;;;;;;4.25;0.98;;;7.20;94.20;;;;;;5029886;28;20085;-68
2022/12/23 03:48:47;;;;;;;0.03;0.03;;;7.10;94.30;;;;;;5039536;28;20103;-68
2022/12/23 03:51:18;;;;;;;0.05;0.05;;;7.20;94.40;;;;;;5032544;28;20040;-68
2022/12/23 03:54:16;;;;;;;0.00;0.00;;;7.20;94.40;;;;;;5026175;28;20065;-68
2022/12/23 03:56:48;;;;;;;0.00;0.00;;;7.20;94.40;;;;;;4994534;28;20065;-68
2022/12/23 03:59:16;;;;;;;;;;;7.10;94.40;;;;;;5029959;28;20709;-68
2022/12/23 04:02:05;;;;;;;0.00;0.00;;;7.20;94.30;;;;;;5029147;28;19932;-68
2022/12/23 04:04:45;;;;;;;0.10;0.10;;;7.10;94.40;;;;;;5029082;28;20759;-68
2022/12/23 04:07:29;;;;;;;0.93;0.90;;;7.10;94.40;;;;;;5026214;28;20497;-68
2022/12/23 04:09:54;;;;;;;0.00;0.00;;;7.10;94.40;;;;;;5008337;28;20132;-68
2022/12/23 04:12:23;;;;;;;0.15;0.15;;;7.10;94.40;;;;;;5025868;28;20045;-68
2022/12/23 04:14:49;;;;;;;1.17;0.90;;;7.10;94.30;;;;;;4995331;28;20053;-68
2022/12/23 04:17:16;;;;;;;0.00;0.00;;;7.10;94.40;;;;;;5028804;28;20053;-68
2022/12/23 04:19:44;;;;;;;0.10;0.10;;;7.10;94.40;;;;;;5026729;28;20545;-68
2022/12/23 04:22:11;;;;;;;0.00;0.00;;;7.20;94.40;;;;;;5029044;28;20049;-68
2022/12/23 04:24:36;;;;;;;0.03;0.03;;;7.20;94.40;;;;;;5022363;28;20049;-68
2022/12/23 04:27:02;;;;;;;0.30;0.30;;;7.20;94.40;;;;;;5027042;28;20045;-68
2022/12/23 04:29:28;;;;;;;0.00;0.00;;;7.20;94.40;;;;;;5027613;28;20049;-68
2022/12/23 04:31:53;;;;;;;0.00;0.00;;;7.20;94.30;;;;;;5026689;28;20044;-68
2022/12/23 04:34:19;;;;;;;0.00;0.00;;;7.20;94.20;;;;;;4990074;28;20068;-68
2022/12/23 04:36:44;;;;;;;0.00;0.00;;;7.20;94.20;;;;;;5027781;28;20045;-68
2022/12/23 04:39:10;;;;;;;0.00;0.00;;;7.10;94.20;;;;;;5024658;28;20128;-68
2022/12/23 04:41:36;;;;;;;0.00;0.00;;;7.10;94.30;;;;;;5027517;28;20445;-68
2022/12/23 04:44:01;;;;;;;0.00;0.00;;;7.20;94.30;;;;;;5010638;28;20379;-68
2022/12/23 04:46:27;;;;;;;0.00;0.00;;;7.20;94.30;;;;;;5028182;28;20057;-68
2022/12/23 04:48:52;;;;;;;0.00;0.00;;;7.10;94.30;;;;;;5027044;28;20128;-68
2022/12/23 04:51:18;;;;;;;0.10;0.10;;;7.20;94.20;;;;;;5024825;28;20037;-68
2022/12/23 04:53:43;;;;;;;0.00;0.00;;;7.20;94.20;;;;;;5027762;28;20037;-68
2022/12/23 04:56:09;;;;;;;0.00;0.00;;;7.10;94.20;;;;;;5027983;28;20056;-68
2022/12/23 04:58:35;;;;;;;0.00;0.00;;;7.10;94.30;;;;;;5029022;28;20069;-68
2022/12/23 05:01:06;;;;;;;0.00;0.00;;;7.10;94.20;;;;;;5027584;28;20169;-68
2022/12/23 05:03:31;;;;;;;0.00;0.00;;;7.10;94.20;;;;;;5028975;28;20143;-68
2022/12/23 05:05:57;;;;;;;0.38;0.38;;;7.20;94.20;;;;;;5028175;28;20589;-68
2022/12/23 05:08:22;;;;;;;0.00;0.00;;;7.20;94.20;;;;;;5035734;28;20048;-68
2022/12/23 05:10:48;;;;;;;0.00;0.00;;;7.20;94.20;;;;;;5042828;28;20533;-68
2022/12/23 05:13:14;;;;;;;0.10;0.10;;;7.10;94.10;;;;;;5008465;28;20136;-68
2022/12/23 05:15:42;;;;;;;0.00;0.00;;;7.20;94.20;;;;;;5028722;28;20038;-68
2022/12/23 05:18:07;;;;;;;0.00;0.00;;;7.20;94.20;;;;;;5029084;28;20116;-68
2022/12/23 05:20:33;;;;;;;0.00;0.00;;;7.20;94.20;;;;;;5029931;28;20446;-68
2022/12/23 05:22:58;;;;;;;0.00;0.00;;;7.20;94.20;;;;;;5029659;28;20049;-68
2022/12/23 05:25:24;;;;;;;0.00;0.00;;;7.20;94.20;;;;;;5012136;28;20068;-68
2022/12/23 05:27:50;;;;;;;0.45;0.45;;;7.10;94.10;;;;;;5029575;28;20041;-67
2022/12/23 05:30:15;;;;;;;0.20;0.20;;;7.10;94.00;;;;;;5029744;28;20567;-68
2022/12/23 05:32:41;;;;;;;0.00;0.00;;;7.10;94.10;;;;;;5029619;28;20064;-68
2022/12/23 05:35:07;;;;;;;0.00;0.00;;;7.10;94.10;;;;;;5028747;28;20037;-67
2022/12/23 05:37:32;;;;;;;0.00;0.00;;;7.10;94.10;;;;;;5028704;28;20045;-68
2022/12/23 05:39:58;;;;;;;0.00;0.00;;;7.10;94.10;;;;;;5027972;28;20124;-68
2022/12/23 05:42:24;;;;;;;0.10;0.10;;;7.10;94.10;;;;;;5027427;28;20045;-68
2022/12/23 05:44:49;;;;;;;0.00;0.00;;;7.10;94.00;;;;;;5030283;28;20080;-68
2022/12/23 05:47:15;;;;;;;0.00;0.00;;;7.10;94.10;;;;;;5032179;28;20678;-68
2022/12/23 05:49:40;;;;;;;0.00;0.00;;;7.10;94.10;;;;;;5033485;28;20034;-68
2022/12/23 05:52:06;;;;;;;0.00;0.00;;;7.10;94.10;;;;;;5030826;28;20120;-68
2022/12/23 05:54:31;;;;;;;0.00;0.00;;;7.10;94.10;;;;;;5029405;28;20071;-68
2022/12/23 05:56:57;;;;;;;0.00;0.00;;;7.10;94.10;;;;;;5013118;28;20038;-67
2022/12/23 05:59:22;;;;;;;0.00;0.00;;;7.10;94.10;;;;;;5031938;28;20064;-68
2022/12/23 06:01:48;;;;;;;0.00;0.00;;;7.10;94.10;;;;;;5006950;28;20041;-68
2022/12/23 06:04:14;;;;;;;0.00;0.00;;;7.10;94.10;;;;;;5031040;28;20522;-68
2022/12/23 06:06:39;;;;;;;0.03;0.03;;;7.10;94.10;;;;;;5031108;28;20045;-68
2022/12/23 06:09:05;;;;;;;0.00;0.00;;;7.10;94.00;;;;;;5029262;28;20125;-68
2022/12/23 06:11:30;;;;;;;0.00;0.00;;;7.10;94.10;;;;;;5031368;28;20053;-68
2022/12/23 06:13:56;;;;;;;0.00;0.00;;;7.10;94.10;;;;;;5026813;28;20033;-68
2022/12/23 06:16:22;;;;;;;0.00;0.00;;;7.10;94.00;;;;;;5030259;28;20453;-67
2022/12/23 06:18:47;;;;;;;0.00;0.00;;;7.10;94.10;;;;;;5030321;28;20041;-67
2022/12/23 06:21:13;;;;;;;0.00;0.00;;;7.10;94.10;;;;;;5013249;28;20053;-67
2022/12/23 06:23:38;;;;;;;0.10;0.10;;;7.10;94.10;;;;;;5041391;28;20045;-68
2022/12/23 06:26:04;;;;;;;0.00;0.00;;;7.10;94.10;;;;;;5029454;28;20058;-68
2022/12/23 06:28:29;;;;;;;0.00;0.00;;;7.10;94.00;;;;;;5030717;28;20076;-68
2022/12/23 06:30:56;;;;;;;0.80;0.80;;;7.10;94.00;;;;;;5031040;28;20049;-68
2022/12/23 06:33:22;;;;;;;0.00;0.00;;;7.10;94.00;;;;;;5014784;28;20478;-68
2022/12/23 06:35:48;;;;;;;0.00;0.00;;;7.10;93.90;;;;;;5030417;28;20490;-68
2022/12/23 06:38:14;;;;;;;0.00;0.00;;;7.10;93.90;;;;;;5011848;28;20072;-68
2022/12/23 06:40:40;;;;;;;0.00;0.00;;;7.00;94.00;;;;;;5030018;28;20532;-68
2022/12/23 06:43:06;;;;;;;0.00;0.00;;;7.00;93.90;;;;;;5013538;28;20052;-68
2022/12/23 06:45:31;;;;;;;0.00;0.00;;;7.00;93.90;;;;;;5031686;28;20046;-68
2022/12/23 06:47:57;;;;;;;0.00;0.00;;;6.90;93.90;;;;;;5031565;28;20410;-68
2022/12/23 06:50:22;;;;;;;0.00;0.00;;;6.90;93.90;;;;;;5029471;28;20088;-68
2022/12/23 06:52:48;;;;;;;0.10;0.10;;;6.90;93.90;;;;;;5028393;28;20038;-69
2022/12/23 06:55:14;;;;;;;0.15;0.15;;;6.90;94.00;;;;;;5008001;28;20049;-68
2022/12/23 06:57:39;;;;;;;0.10;0.10;;;6.90;94.00;;;;;;5030556;28;20052;-68
2022/12/23 07:00:06;;;;;;;0.00;0.00;;;6.90;94.00;;;;;;5029496;28;20042;-68
2022/12/23 07:02:32;;;;;;;0.03;0.03;;;6.80;94.00;;;;;;5031288;28;20075;-68
2022/12/23 07:04:58;;;;;;;0.00;0.00;;;6.90;94.00;;;;;;5013562;28;20114;-68
2022/12/23 07:07:23;;;;;;;0.00;0.00;;;6.80;94.00;;;;;;5032024;28;20041;-67
2022/12/23 07:09:49;;;;;;;0.00;0.00;;;6.80;94.00;;;;;;5032118;28;20107;-68
2022/12/23 07:12:15;;;;;;;0.00;0.00;;;6.70;94.20;;;;;;5032358;28;20398;-68
2022/12/23 07:14:40;;;;;;;0.20;0.13;;;6.70;94.20;;;;;;5029878;28;20500;-68
2022/12/23 07:17:06;;;;;;;0.00;0.00;;;6.70;94.20;;;;;;5014123;28;20053;-67
2022/12/23 07:19:31;;;;;;;1.00;1.00;;;6.70;94.20;;;;;;5030892;28;20050;-66
2022/12/23 07:21:57;;;;;;;5.57;0.90;;;6.70;94.20;;;;;;5030975;28;20494;-66
2022/12/23 07:24:22;;;;;;;0.00;0.00;;;6.70;94.30;;;;;;5031551;28;20080;-66
2022/12/23 07:26:49;;;;;;;0.00;0.00;;;6.70;94.30;;;;;;5013678;28;20049;-66
2022/12/23 07:29:15;;;;;;;0.00;0.00;;;6.80;94.30;;;;;;5031988;28;20045;-65
2022/12/23 07:31:40;;;;;;;0.00;0.00;;;6.80;94.30;;;;;;5031624;28;20053;-66
2022/12/23 07:34:06;;;;;;;0.00;0.00;;;6.80;94.20;;;;;;5014189;28;20053;-66
2022/12/23 07:36:32;;;;;;;0.00;0.00;;;6.80;94.20;;;;;;5009797;28;20046;-66
2022/12/23 07:38:57;;;;;;;0.00;0.00;;;6.90;94.20;;;;;;5030671;28;20446;-65
2022/12/23 07:41:23;;;;;;;0.10;0.10;;;6.90;94.20;;;;;;5030149;28;20099;-65
2022/12/23 07:43:48;;;;;;;0.05;0.05;;;6.90;94.20;;;;;;5030066;28;20052;-66
2022/12/23 07:46:14;;;;;;;0.00;0.00;;;6.90;94.20;;;;;;5037208;28;20044;-66
2022/12/23 07:48:43;;;;;;;0.00;0.00;;;6.90;94.20;;;;;;5030995;28;20119;-65
2022/12/23 07:51:09;;;;;;;0.00;0.00;;;6.90;94.20;;;;;;5031348;28;20037;-65
2022/12/23 07:53:34;;;;;;;0.05;0.05;;;6.90;94.20;;;;;;5010529;28;20068;-65
2022/12/23 07:56:00;;;;;;;0.00;0.00;;;7.00;94.20;;;;;;5028896;28;20061;-66
2022/12/23 07:58:26;;;;;;;0.00;0.00;;;7.00;94.20;;;;;;5027970;28;20048;-66
2022/12/23 08:01:02;;;;;;;0.00;0.00;;;7.10;94.20;;;;;;5028184;28;20095;-66
2022/12/23 08:03:27;;;;;;;0.00;0.00;;;7.10;94.20;;;;;;5029679;28;20071;-64
2022/12/23 08:06:07;;;;;;;0.00;0.00;;;7.10;94.10;;;;;;5029660;28;20100;-66
2022/12/23 08:08:33;;;;;;;0.00;0.00;;;7.10;94.10;;;;;;5027734;28;20057;-66
2022/12/23 08:11:02;;;;;;;0.00;0.00;;;7.10;94.20;;;;;;5029163;28;20464;-66
2022/12/23 08:13:27;;;;;;;0.00;0.00;;;7.10;94.20;;;;;;5026521;28;20128;-66
2022/12/23 08:15:58;;;;;;;0.13;0.13;;;7.20;94.20;;;;;;5027146;28;20153;-66
2022/12/23 08:18:24;;;;;;;0.00;0.00;;;7.10;94.10;;;;;;5036776;28;20038;-66
2022/12/23 08:21:00;;;;;;;0.00;0.00;;;7.20;94.10;;;;;;5033899;28;20580;-66
2022/12/23 08:23:26;;;;;;;0.00;0.00;;;7.30;94.20;;;;;;5037411;28;20042;-67
2022/12/23 08:26:20;;;;;;;0.10;0.10;;;7.20;94.10;;;;;;5036201;28;20707;-66
2022/12/23 08:28:47;;;;;;;0.00;0.00;;;7.30;94.10;;;;;;5017812;28;20069;-66
2022/12/23 08:31:16;;;;;;;0.00;0.00;;;7.30;94.10;;;;;;5037048;28;20034;-66
2022/12/23 08:33:43;;;;;;;0.00;0.00;;;7.30;94.10;;;;;;5035740;28;20084;-67
2022/12/23 08:36:13;;;;;;;0.00;0.00;;;7.30;94.00;;;;;;5033248;28;20041;-66
2022/12/23 08:38:38;;;;;;;0.00;0.00;;;7.40;94.00;;;;;;5036774;28;20045;-66
2022/12/23 08:41:13;;;;;;;0.00;0.00;;;7.30;94.00;;;;;;5037319;28;20076;-66
2022/12/23 08:43:38;;;;;;;0.00;0.00;;;7.40;94.00;;;;;;5036899;28;20049;-66
2022/12/23 08:46:05;;;;;;;0.00;0.00;;;7.40;94.00;;;;;;5033300;28;20060;-66
2022/12/23 08:48:32;;;;;;;0.00;0.00;;;7.40;94.00;;;;;;5035617;28;20048;-66
2022/12/23 08:51:03;;;;;;;1.80;1.13;;;7.40;94.00;;;;;;5032786;28;20037;-66
2022/12/23 08:53:29;;;;;;;0.00;0.00;;;7.40;94.00;;;;;;5033398;28;20053;-66
2022/12/23 08:55:54;;;;;;;0.00;0.00;;;7.40;93.90;;;;;;5032756;28;20413;-66
2022/12/23 08:58:20;;;;;;;0.00;0.00;;;7.50;94.00;;;;;;5036568;28;20049;-66
2022/12/23 09:00:46;;;;;;;0.00;0.00;;;7.50;93.90;;;;;;5032163;28;20102;-66
2022/12/23 09:03:11;;;;;;;0.00;0.00;;;7.50;93.90;;;;;;5036721;28;20057;-66
2022/12/23 09:05:40;;;;;;;0.00;0.00;;;7.50;93.90;;;;;;5034079;28;20052;-66
2022/12/23 09:08:07;;;;;;;0.00;0.00;;;7.60;93.80;;;;;;5033737;28;20052;-66
2022/12/23 09:10:33;;;;;;;0.00;0.00;;;7.50;93.80;;;;;;5033194;28;20072;-66
2022/12/23 09:12:58;;;;;;;0.00;0.00;;;7.50;93.80;;;;;;5034456;28;20064;-66
2022/12/23 09:15:24;;;;;;;0.00;0.00;;;7.60;93.90;;;;;;5033610;28;20045;-66
2022/12/23 09:17:49;;;;;;;0.00;0.00;;;7.60;93.90;;;;;;5013787;28;20143;-67
2022/12/23 09:20:15;;;;;;;0.00;0.00;;;7.60;93.80;;;;;;5035722;28;20118;-66
2022/12/23 09:22:40;;;;;;;0.00;0.00;;;7.60;93.90;;;;;;5032287;28;20152;-66
2022/12/23 09:25:06;;;;;;;0.00;0.00;;;7.60;93.80;;;;;;5034064;28;20037;-66
2022/12/23 09:27:32;;;;;;;0.10;0.10;;;7.60;93.80;;;;;;5034018;28;20064;-66
2022/12/23 09:29:57;;;;;;;0.00;0.00;;;7.70;93.80;;;;;;5033564;28;20093;-66
2022/12/23 09:32:23;;;;;;;0.00;0.00;;;7.70;93.80;;;;;;5015756;28;20072;-66
2022/12/23 09:34:49;;;;;;;0.00;0.00;;;7.70;93.80;;;;;;5035468;28;20439;-66
2022/12/23 09:37:15;;;;;;;0.00;0.00;;;7.70;93.80;;;;;;5027648;28;20144;-66
2022/12/23 09:39:41;;;;;;;0.00;0.00;;;7.70;93.80;;;;;;5030706;28;20057;-66
2022/12/23 09:42:26;;;;;;;0.10;0.10;;;7.70;93.80;;;;;;5023015;28;20081;-66
2022/12/23 09:45:19;;;;;;;0.00;0.00;;;7.70;93.70;;;;;;5022219;28;20045;-66
2022/12/23 09:47:45;;;;;;;0.00;0.00;;;7.80;93.70;;;;;;5005404;28;20065;-66
2022/12/23 09:50:19;;;;;;;0.00;0.00;;;7.70;93.80;;;;;;5021722;28;20037;-64
2022/12/23 09:53:04;;;;;;;0.00;0.00;;;7.80;93.70;;;;;;5022504;28;20456;-66
2022/12/23 09:55:52;;;;;;;0.10;0.10;;;7.80;93.70;;;;;;5021289;28;20128;-64
2022/12/23 09:58:32;;;;;;;0.00;0.00;;;7.90;93.70;;;;;;5020939;28;20064;-65
2022/12/23 10:01:31;;;;;;;0.00;0.00;;;7.90;93.70;;;;;;5023451;28;20043;-64
2022/12/23 10:04:27;;;;;;;0.00;0.00;;;7.90;93.60;;;;;;5019242;28;20184;-64
2022/12/23 10:07:03;;;;;;;0.00;0.00;;;7.90;93.60;;;;;;5004063;28;20159;-65
2022/12/23 10:09:32;;;;;;;0.00;0.00;;;7.90;93.60;;;;;;5002189;28;20045;-65
2022/12/23 10:11:59;;;;;;;0.00;0.00;;;7.90;93.60;;;;;;5022845;28;20046;-65
2022/12/23 10:14:31;;;;;;;0.00;0.00;;;8.00;93.60;;;;;;5001846;28;20064;-64
2022/12/23 10:17:07;;;;;;;0.20;0.20;;;8.00;93.60;;;;;;5022207;28;20107;-64
2022/12/23 10:19:40;;;;;;;0.00;0.00;;;8.00;93.60;;;;;;5020833;28;20402;-65
2022/12/23 10:22:34;;;;;;;0.00;0.00;;;8.10;93.60;;;;;;5021658;28;20061;-65
2022/12/23 10:25:04;;;;;;;0.00;0.00;;;8.10;93.60;;;;;;5020452;28;20079;-65
2022/12/23 10:27:40;;;;;;;0.00;0.00;;;8.00;93.60;;;;;;5022240;28;20053;-65
2022/12/23 10:30:11;;;;;;;0.00;0.00;;;8.10;93.60;;;;;;5024643;28;20044;-65
2022/12/23 10:32:58;;;;;;;0.00;0.00;;;8.10;93.60;;;;;;5026182;28;20510;-65
2022/12/23 10:35:35;;;;;;;0.00;0.00;;;8.10;93.40;;;;;;5024526;28;20056;-65
2022/12/23 10:38:31;;;;;;;0.00;0.00;;;8.10;93.50;;;;;;5022201;28;20061;-65
2022/12/23 10:41:10;;;;;;;0.00;0.00;;;8.10;93.50;;;;;;4933985;28;1060762;-65
2022/12/23 10:44:02;;;;;;;0.00;0.00;;;8.10;93.50;;;;;;5026393;28;20059;-65
2022/12/23 10:46:28;;;;;;;0.00;0.00;;;8.10;93.50;;;;;;5027574;28;20081;-64
2022/12/23 10:49:32;;;;;;;0.00;0.00;;;8.10;93.60;;;;;;5024551;28;20077;-64
2022/12/23 10:52:10;;;;;;;0.00;0.00;;;8.20;93.60;;;;;;4971863;28;20055;-64
2022/12/23 10:54:37;;;;;;;0.00;0.00;;;8.20;93.60;;;;;;5026718;28;20033;-64
2022/12/23 10:57:05;;;;;;;0.00;0.00;;;8.20;93.60;;;;;;5025506;28;20041;-65
2022/12/23 10:59:33;;;;;;;0.00;0.00;;;8.20;93.50;;;;;;5023172;28;20061;-65
2022/12/23 11:02:11;;;;;;;0.00;0.00;;;8.20;93.50;;;;;;5024139;28;20124;-64
2022/12/23 11:04:42;;;;;;;0.00;0.00;;;8.30;93.60;;;;;;5024319;28;20144;-65
2022/12/23 11:07:11;;;;;;;0.10;0.10;;;8.40;93.70;;;;;;5024222;28;20052;-65
2022/12/23 11:09:51;;;;;;;0.00;0.00;;;8.40;93.60;;;;;;5024845;28;20060;-64
2022/12/23 11:12:21;;;;;;;0.00;0.00;;;8.40;93.60;;;;;;5025101;28;20034;-64
2022/12/23 11:14:53;;;;;;;0.10;0.10;;;8.40;93.60;;;;;;5021212;28;20056;-64
2022/12/23 11:17:23;;;;;;;0.10;0.10;;;8.40;93.50;;;;;;5024360;28;20107;-65
2022/12/23 11:20:16;;;;;;;0.00;0.00;;;8.40;93.50;;;;;;5028757;28;20037;-65
2022/12/23 11:23:27;;;;;;;0.00;0.00;;;8.40;93.50;;;;;;5024856;28;20123;-65
2022/12/23 11:26:17;;;;;;;0.00;0.00;;;8.40;93.50;;;;;;5007514;28;20495;-63
2022/12/23 11:28:50;;;;;;;0.00;0.00;;;8.40;93.50;;;;;;5022167;28;20127;-66
2022/12/23 11:31:25;;;;;;;0.00;0.00;;;8.40;93.50;;;;;;5026318;28;20045;-66
2022/12/23 11:33:58;;;;;;;0.00;0.00;;;8.40;93.50;;;;;;5025310;28;20068;-66
2022/12/23 11:36:26;;;;;;;0.00;0.00;;;8.40;93.50;;;;;;5023821;28;20049;-66
2022/12/23 11:39:10;;;;;;;0.00;0.00;;;8.40;93.40;;;;;;5026599;28;20069;-66
2022/12/23 11:41:46;;;;;;;0.00;0.00;;;8.40;93.40;;;;;;5036211;28;20053;-66
2022/12/23 11:44:38;;;;;;;0.05;0.05;;;8.40;93.50;;;;;;5037836;28;20049;-66
2022/12/23 11:47:37;;;;;;;0.70;0.70;;;8.40;93.40;;;;;;5037616;28;20081;-66
2022/12/23 11:50:26;;;;;;;0.00;0.00;;;8.40;93.40;;;;;;5033067;28;20421;-66
2022/12/23 11:52:59;;;;;;;0.00;0.00;;;8.40;93.40;;;;;;5022551;28;20052;-66
2022/12/23 11:55:28;;;;;;;0.00;0.00;;;8.40;93.40;;;;;;5037449;28;20045;-66
2022/12/23 11:57:55;;;;;;;0.75;0.75;;;8.40;93.40;;;;;;5037881;28;20046;-67
2022/12/23 12:00:27;;;;;;;0.00;0.00;;;8.40;93.40;;;;;;5037657;28;20138;-66
2022/12/23 12:02:59;;;;;;;0.00;0.00;;;8.50;93.40;;;;;;5038265;28;20042;-66
2022/12/23 12:05:32;;;;;;;0.00;0.00;;;8.50;93.40;;;;;;5035725;28;20052;-66
2022/12/23 12:08:09;;;;;;;0.57;0.57;;;8.40;93.40;;;;;;5037902;28;20033;-66
2022/12/23 12:10:37;;;;;;;0.00;0.00;;;8.40;93.40;;;;;;5034129;28;20052;-66
2022/12/23 12:13:06;;;;;;;0.00;0.00;;;8.40;93.40;;;;;;5036125;28;20095;-66
2022/12/23 12:15:54;;;;;;;0.00;0.00;;;8.40;93.40;;;;;;5036730;28;20048;-66
2022/12/23 12:18:20;;;;;;;0.52;0.47;;;8.40;93.40;;;;;;5034826;28;20128;-66
2022/12/23 12:20:52;;;;;;;0.00;0.00;;;8.40;93.40;;;;;;5035930;28;20084;-66
2022/12/23 12:23:25;;;;;;;0.08;0.08;;;8.50;93.40;;;;;;5037263;28;20079;-66
2022/12/23 12:26:01;;;;;;;0.00;0.00;;;8.50;93.40;;;;;;5036844;28;20087;-68
2022/12/23 12:28:45;;;;;;;0.00;0.00;;;8.40;93.30;;;;;;5035698;28;20445;-66
2022/12/23 12:31:26;;;;;;;0.00;0.00;;;8.50;93.40;;;;;;5036094;28;20048;-66
2022/12/23 12:34:20;;;;;;;0.00;0.00;;;8.40;93.40;;;;;;5035978;28;20497;-66
2022/12/23 12:36:58;;;;;;;0.00;0.00;;;8.50;93.40;;;;;;5036822;28;20041;-66
2022/12/23 12:39:32;;;;;;;0.00;0.00;;;8.50;93.40;;;;;;5036176;28;20037;-66
2022/12/23 12:42:26;;;;;;;0.00;0.00;;;8.60;93.40;;;;;;5021464;28;20049;-66
2022/12/23 12:45:17;;;;;;;0.00;0.00;;;8.50;93.30;;;;;;5034045;28;20861;-66
2022/12/23 12:48:21;;;;;;;0.05;0.05;;;8.50;93.40;;;;;;4999973;28;20057;-66
2022/12/23 12:51:12;;;;;;;0.20;0.20;;;8.50;93.30;;;;;;5037511;28;20053;-66
2022/12/23 12:53:51;;;;;;;0.10;0.10;;;8.50;93.40;;;;;;5034579;28;20045;-66
2022/12/23 12:56:35;;;;;;;0.00;0.00;;;8.50;93.40;;;;;;5035833;28;20116;-66
2022/12/23 12:59:02;;;;;;;0.00;0.00;;;8.50;93.30;;;;;;5031629;28;20191;-66
2022/12/23 13:01:36;;;;;;;0.00;0.00;;;8.50;93.30;;;;;;5015540;28;20053;-66
2022/12/23 13:04:33;;;;;;;0.00;0.00;;;8.50;93.30;;;;;;5037655;28;20045;-66
2022/12/23 13:07:25;;;;;;;0.00;0.00;;;8.40;93.20;;;;;;5014879;28;20048;-66
2022/12/23 13:10:32;;;;;;;0.00;0.00;;;8.40;93.20;;;;;;5033061;28;20104;-67
2022/12/23 13:13:03;;;;;;;0.00;0.00;;;8.40;93.20;;;;;;5034954;28;20523;-66
2022/12/23 13:15:33;;;;;;;0.00;0.00;;;8.40;93.20;;;;;;5014940;28;20167;-66
2022/12/23 13:18:04;;;;;;;0.00;0.00;;;8.30;93.10;;;;;;5036030;28;20083;-66
2022/12/23 13:20:47;;;;;;;0.10;0.10;;;8.30;93.10;;;;;;5035074;28;20037;-66
2022/12/23 13:23:33;;;;;;;0.00;0.00;;;8.20;93.20;;;;;;5036703;28;20527;-66
2022/12/23 13:26:15;;;;;;;0.00;0.00;;;8.20;93.20;;;;;;5019988;28;20049;-66
2022/12/23 13:28:50;;;;;;;0.00;0.00;;;8.20;93.20;;;;;;5034749;28;20041;-66
2022/12/23 13:31:30;;;;;;;0.00;0.00;;;8.20;93.20;;;;;;5034027;28;20111;-66
2022/12/23 13:34:35;;;;;;;0.10;0.10;;;8.20;93.20;;;;;;5015901;28;20048;-66
2022/12/23 13:37:25;;;;;;;0.00;0.00;;;8.20;93.30;;;;;;5011064;28;20056;-66
2022/12/23 13:40:03;;;;;;;0.00;0.00;;;8.10;93.20;;;;;;5035126;28;20128;-66
2022/12/23 13:42:37;;;;;;;0.00;0.00;;;8.10;93.30;;;;;;5032706;28;20050;-66
2022/12/23 13:45:04;;;;;;;0.00;0.00;;;8.10;93.30;;;;;;5034062;28;20059;-66
2022/12/23 13:47:50;;;;;;;0.00;0.00;;;8.10;93.30;;;;;;5035498;28;20501;-66
2022/12/23 13:50:44;;;;;;;0.00;0.00;;;8.10;93.30;;;;;;5035791;28;20041;-66
2022/12/23 13:53:40;;;;;;;0.00;0.00;;;8.10;93.30;;;;;;5030780;28;20051;-65
2022/12/23 13:56:31;;;;;;;0.00;0.00;;;8.00;93.30;;;;;;5034282;28;20406;-66